createdAt,value
2018-06-17T00:00:07.544Z,1.60
2018-06-17T00:02:35.958Z,2.10
2018-06-17T00:05:04.230Z,2.00
2018-06-17T00:07:32.573Z,1.87
2018-06-17T00:10:00.895Z,2.10
2018-06-17T00:12:29.260Z,1.67
2018-06-17T00:14:57.602Z,1.67
2018-06-17T00:17:26.080Z,1.37
2018-06-17T00:19:54.488Z,2.17
2018-06-17T00:22:23.417Z,1.40
2018-06-17T00:24:51.772Z,1.40
2018-06-17T00:27:20.241Z,1.47
2018-06-17T00:29:48.664Z,1.10
2018-06-17T00:32:17.011Z,1.10
2018-06-17T00:34:45.352Z,1.50
2018-06-17T00:37:13.728Z,2.70
2018-06-17T00:39:42.100Z,2.43
2018-06-17T00:42:10.448Z,1.70
2018-06-17T00:44:38.852Z,2.20
2018-06-17T00:47:07.298Z,1.70
2018-06-17T00:49:35.671Z,1.87
2018-06-17T00:52:10.428Z,1.30
2018-06-17T00:54:38.774Z,2.47
2018-06-17T00:57:18.413Z,2.00
2018-06-17T00:59:46.509Z,2.10
2018-06-17T01:02:14.837Z,2.03
2018-06-17T01:04:43.176Z,2.57
2018-06-17T01:07:11.602Z,2.57
2018-06-17T01:09:39.956Z,3.10
2018-06-17T01:12:08.310Z,2.00
2018-06-17T01:14:36.640Z,2.07
2018-06-17T01:17:11.794Z,1.17
2018-06-17T01:19:40.208Z,1.47
2018-06-17T01:22:08.589Z,2.30
2018-06-17T01:24:36.955Z,1.80
2018-06-17T01:27:05.366Z,2.30
2018-06-17T01:29:33.800Z,1.77
2018-06-17T01:32:02.124Z,3.03
2018-06-17T01:34:30.460Z,3.03
2018-06-17T01:36:58.822Z,1.87
2018-06-17T01:39:27.216Z,2.20
2018-06-17T01:41:55.584Z,2.00
2018-06-17T01:44:23.951Z,1.90
2018-06-17T01:46:52.376Z,1.13
2018-06-17T01:49:20.773Z,2.23
2018-06-17T01:51:49.130Z,1.80
2018-06-17T01:54:17.489Z,1.57
2018-06-17T01:56:45.800Z,1.60
2018-06-17T01:59:14.151Z,2.40
2018-06-17T02:01:42.510Z,1.80
2018-06-17T02:04:16.251Z,1.50
2018-06-17T02:06:50.040Z,2.93
2018-06-17T02:11:30.097Z,2.87
2018-06-17T02:14:03.715Z,2.03
2018-06-17T02:16:32.335Z,2.97
2018-06-17T02:19:00.671Z,3.10
2018-06-17T02:21:29.023Z,2.57
2018-06-17T02:23:57.468Z,2.63
2018-06-17T02:26:25.854Z,1.60
2018-06-17T02:28:54.524Z,1.60
2018-06-17T02:31:22.889Z,1.50
2018-06-17T02:33:51.317Z,1.73
2018-06-17T02:36:19.692Z,2.50
2018-06-17T02:38:48.079Z,2.10
2018-06-17T02:41:16.360Z,2.40
2018-06-17T02:43:44.716Z,2.00
2018-06-17T02:46:18.367Z,2.87
2018-06-17T02:48:52.141Z,3.10
2018-06-17T02:51:26.622Z,3.87
2018-06-17T02:54:00.212Z,3.60
2018-06-17T02:56:28.649Z,3.30
2018-06-17T02:58:56.978Z,2.90
2018-06-17T03:01:25.328Z,4.27
2018-06-17T03:03:53.713Z,3.20
2018-06-17T03:06:22.726Z,2.60
2018-06-17T03:08:51.085Z,3.70
2018-06-17T03:11:19.532Z,2.53
2018-06-17T03:13:47.906Z,1.70
2018-06-17T03:16:16.242Z,1.57
2018-06-17T03:18:44.570Z,1.50
2018-06-17T03:21:12.627Z,3.03
2018-06-17T03:23:40.983Z,2.07
2018-06-17T03:26:14.729Z,2.27
2018-06-17T03:28:48.457Z,2.00
2018-06-17T03:31:17.375Z,2.70
2018-06-17T03:33:47.415Z,2.27
2018-06-17T03:36:16.331Z,2.83
2018-06-17T03:38:44.697Z,2.33
2018-06-17T03:41:13.107Z,3.10
2018-06-17T03:43:41.469Z,2.70
2018-06-17T03:46:09.870Z,4.03
2018-06-17T03:48:39.235Z,3.90
2018-06-17T03:51:07.767Z,3.37
2018-06-17T03:53:36.158Z,4.23
2018-06-17T03:56:04.527Z,4.13
2018-06-17T03:58:32.889Z,4.53
2018-06-17T04:01:01.260Z,4.23
2018-06-17T04:03:29.624Z,4.17
2018-06-17T04:05:57.967Z,4.00
2018-06-17T04:08:26.309Z,4.33
2018-06-17T04:10:54.665Z,3.80
2018-06-17T04:13:22.723Z,4.43
2018-06-17T04:15:51.517Z,4.37
2018-06-17T04:18:19.887Z,4.23
2018-06-17T04:20:48.677Z,4.03
2018-06-17T04:23:17.060Z,3.37
2018-06-17T04:25:45.900Z,2.47
2018-06-17T04:28:14.241Z,2.33
2018-06-17T04:30:42.306Z,2.50
2018-06-17T04:33:10.407Z,2.83
2018-06-17T04:35:38.795Z,4.07
2018-06-17T04:38:07.093Z,2.13
2018-06-17T04:40:35.407Z,2.60
2018-06-17T04:43:04.466Z,2.00
2018-06-17T04:45:33.059Z,3.10
2018-06-17T04:48:01.110Z,3.23
2018-06-17T04:50:29.458Z,1.23
2018-06-17T04:52:57.812Z,2.27
2018-06-17T04:55:26.175Z,3.33
2018-06-17T04:57:54.519Z,2.83
2018-06-17T05:00:22.891Z,3.33
2018-06-17T05:02:51.247Z,2.43
2018-06-17T05:05:19.831Z,1.97
2018-06-17T05:07:48.327Z,2.70
2018-06-17T05:10:16.709Z,2.57
2018-06-17T05:12:45.229Z,3.30
2018-06-17T05:15:13.709Z,4.33
2018-06-17T05:17:43.626Z,4.60
2018-06-17T05:20:14.567Z,3.90
2018-06-17T05:22:43.005Z,3.70
2018-06-17T05:25:11.959Z,3.23
2018-06-17T05:27:40.291Z,4.47
2018-06-17T05:30:09.354Z,4.33
2018-06-17T05:32:37.751Z,4.27
2018-06-17T05:35:06.096Z,3.90
2018-06-17T05:37:34.481Z,4.43
2018-06-17T05:40:02.818Z,4.50
2018-06-17T05:42:31.172Z,3.83
2018-06-17T05:44:59.540Z,4.70
2018-06-17T05:47:27.909Z,4.33
2018-06-17T05:49:55.941Z,4.33
2018-06-17T05:52:25.099Z,4.93
2018-06-17T05:54:53.547Z,3.77
2018-06-17T05:57:22.030Z,4.30
2018-06-17T05:59:50.379Z,4.90
2018-06-17T06:02:18.481Z,5.13
2018-06-17T06:04:46.821Z,5.00
2018-06-17T06:07:15.205Z,4.87
2018-06-17T06:09:43.597Z,4.73
2018-06-17T06:12:11.664Z,5.27
2018-06-17T06:14:40.022Z,3.63
2018-06-17T06:17:08.365Z,5.47
2018-06-17T06:19:36.723Z,5.00
2018-06-17T06:22:05.231Z,3.63
2018-06-17T06:24:33.607Z,5.40
2018-06-17T06:27:01.949Z,4.60
2018-06-17T06:29:30.465Z,5.00
2018-06-17T06:31:58.854Z,5.07
2018-06-17T06:34:27.359Z,6.63
2018-06-17T06:36:55.699Z,6.23
2018-06-17T06:39:24.673Z,6.63
2018-06-17T06:41:53.063Z,6.27
2018-06-17T06:44:21.452Z,6.03
2018-06-17T06:46:49.873Z,4.20
2018-06-17T06:49:18.249Z,4.40
2018-06-17T06:51:46.639Z,6.10
2018-06-17T06:54:14.979Z,5.13
2018-06-17T06:56:43.345Z,4.23
2018-06-17T06:59:11.786Z,5.67
2018-06-17T07:01:45.601Z,7.17
2018-06-17T07:04:25.067Z,5.73
2018-06-17T07:07:04.771Z,4.97
2018-06-17T07:09:44.305Z,5.13
2018-06-17T07:12:12.707Z,5.00
2018-06-17T07:14:41.057Z,3.43
2018-06-17T07:17:20.651Z,4.50
2018-06-17T07:19:49.145Z,4.13
2018-06-17T07:22:17.513Z,4.27
2018-06-17T07:24:45.985Z,5.50
2018-06-17T07:27:26.397Z,3.70
2018-06-17T07:29:54.841Z,4.13
2018-06-17T07:32:23.187Z,4.43
2018-06-17T07:34:58.005Z,3.00
2018-06-17T07:37:26.353Z,3.10
2018-06-17T07:40:58.051Z,3.67
2018-06-17T07:43:26.417Z,3.73
2018-06-17T07:45:54.869Z,3.83
2018-06-17T07:49:51.932Z,2.97
2018-06-17T07:52:32.807Z,3.27
2018-06-17T07:55:01.757Z,2.80
2018-06-17T07:57:31.294Z,2.90
2018-06-17T07:59:59.748Z,2.97
2018-06-17T08:02:29.247Z,2.83
2018-06-17T08:04:57.617Z,2.63
2018-06-17T08:07:26.061Z,3.50
2018-06-17T08:09:54.797Z,2.20
2018-06-17T08:12:23.207Z,2.90
2018-06-17T08:14:51.578Z,2.93
2018-06-17T08:17:20.029Z,2.23
2018-06-17T08:19:48.389Z,2.17
2018-06-17T08:22:16.445Z,2.37
2018-06-17T08:24:44.552Z,1.90
2018-06-17T08:27:13.019Z,2.40
2018-06-17T08:29:41.412Z,1.80
2018-06-17T08:32:09.781Z,1.40
2018-06-17T08:34:38.123Z,1.37
2018-06-17T08:37:06.526Z,2.00
2018-06-17T08:39:34.987Z,1.33
2018-06-17T08:42:03.362Z,1.60
2018-06-17T08:44:31.826Z,1.40
2018-06-17T08:47:00.293Z,2.27
2018-06-17T08:49:28.640Z,2.30
2018-06-17T08:51:56.992Z,1.97
2018-06-17T08:54:25.083Z,1.53
2018-06-17T08:56:53.418Z,1.73
2018-06-17T08:59:22.432Z,2.10
2018-06-17T09:01:50.791Z,1.50
2018-06-17T09:04:19.250Z,1.83
2018-06-17T09:06:47.630Z,1.60
2018-06-17T09:09:15.966Z,2.20
2018-06-17T09:11:44.115Z,2.23
2018-06-17T09:14:12.610Z,2.30
2018-06-17T09:16:41.004Z,2.73
2018-06-17T09:19:09.398Z,1.77
2018-06-17T09:21:37.718Z,2.13
2018-06-17T09:24:06.077Z,2.33
2018-06-17T09:26:34.479Z,2.63
2018-06-17T09:29:09.360Z,2.90
2018-06-17T09:31:38.440Z,2.33
2018-06-17T09:34:06.753Z,2.43
2018-06-17T09:36:35.331Z,1.97
2018-06-17T09:39:04.994Z,2.43
2018-06-17T09:41:33.354Z,1.97
2018-06-17T09:44:01.718Z,2.10
2018-06-17T09:46:29.819Z,1.80
2018-06-17T09:48:58.194Z,2.27
2018-06-17T09:51:26.527Z,2.93
2018-06-17T09:53:54.868Z,1.90
2018-06-17T09:56:23.230Z,2.47
2018-06-17T09:58:51.584Z,2.70
2018-06-17T10:01:20.083Z,2.10
2018-06-17T10:03:48.481Z,2.27
2018-06-17T10:06:16.854Z,1.90
2018-06-17T10:08:45.181Z,2.10
2018-06-17T10:11:13.644Z,1.90
2018-06-17T10:13:43.150Z,2.37
2018-06-17T10:16:11.842Z,2.63
2018-06-17T10:18:40.418Z,2.20
2018-06-17T10:21:08.869Z,2.07
2018-06-17T10:23:37.234Z,1.63
2018-06-17T10:26:05.660Z,1.80
2018-06-17T10:28:34.798Z,1.40
2018-06-17T10:31:04.530Z,2.33
2018-06-17T10:33:33.146Z,2.57
2018-06-17T10:36:01.539Z,2.47
2018-06-17T10:38:29.892Z,2.23
2018-06-17T10:40:57.999Z,2.03
2018-06-17T10:43:28.124Z,2.00
2018-06-17T10:45:56.534Z,1.70
2018-06-17T10:48:24.892Z,1.90
2018-06-17T10:50:53.255Z,2.23
2018-06-17T10:53:21.624Z,1.50
2018-06-17T10:55:50.092Z,1.70
2018-06-17T10:58:18.484Z,1.53
2018-06-17T11:00:46.830Z,1.67
2018-06-17T11:03:14.901Z,1.50
2018-06-17T11:05:43.336Z,1.70
2018-06-17T11:08:12.416Z,1.60
2018-06-17T11:10:40.796Z,2.10
2018-06-17T11:13:09.206Z,1.83
2018-06-17T11:15:37.646Z,1.57
2018-06-17T11:18:06.058Z,1.90
2018-06-17T11:20:34.446Z,1.93
2018-06-17T11:23:02.837Z,2.03
2018-06-17T11:25:31.213Z,1.70
2018-06-17T11:27:59.744Z,1.83
2018-06-17T11:30:28.127Z,1.73
2018-06-17T11:32:56.528Z,1.47
2018-06-17T11:35:24.920Z,1.60
2018-06-17T11:37:53.376Z,1.60
2018-06-17T11:40:21.784Z,1.23
2018-06-17T11:42:50.166Z,1.60
2018-06-17T11:45:18.574Z,1.90
2018-06-17T11:47:46.836Z,1.23
2018-06-17T11:50:15.280Z,2.07
2018-06-17T11:52:46.705Z,1.60
2018-06-17T11:55:15.089Z,1.77
2018-06-17T11:57:43.520Z,1.27
2018-06-17T12:00:11.609Z,1.23
2018-06-17T12:02:40.003Z,1.60
2018-06-17T12:05:08.352Z,1.10
2018-06-17T12:07:36.701Z,2.20
2018-06-17T12:10:05.031Z,1.77
2018-06-17T12:12:33.430Z,1.50
2018-06-17T12:15:01.936Z,1.90
2018-06-17T12:17:30.995Z,1.53
2018-06-17T12:19:59.372Z,1.50
2018-06-17T12:22:27.778Z,1.60
2018-06-17T12:24:56.253Z,1.07
2018-06-17T12:27:24.617Z,1.40
2018-06-17T12:29:53.335Z,1.40
2018-06-17T12:38:15.010Z,1.50
2018-06-17T12:40:43.404Z,1.20
2018-06-17T12:43:11.507Z,1.17
2018-06-17T12:45:40.721Z,1.20
2018-06-17T12:48:09.146Z,1.00
2018-06-17T12:50:37.520Z,1.33
2018-06-17T12:53:06.014Z,1.10
2018-06-17T12:55:34.423Z,1.20
2018-06-17T12:58:02.954Z,1.23
2018-06-17T13:00:31.137Z,1.00
2018-06-17T13:02:59.623Z,1.00
2018-06-17T13:05:28.048Z,1.30
2018-06-17T13:07:56.530Z,1.10
2018-06-17T13:10:24.933Z,1.50
2018-06-17T13:12:53.350Z,1.33
2018-06-17T13:15:21.756Z,1.23
2018-06-17T13:17:50.153Z,1.20
2018-06-17T13:20:18.556Z,1.67
2018-06-17T13:22:47.585Z,1.57
2018-06-17T13:25:16.041Z,1.60
2018-06-17T13:27:44.479Z,1.67
2018-06-17T13:30:14.188Z,1.30
2018-06-17T13:32:45.559Z,1.50
2018-06-17T13:35:13.979Z,1.53
2018-06-17T13:37:42.405Z,1.40
2018-06-17T13:40:25.613Z,1.50
2018-06-17T13:42:54.117Z,1.57
2018-06-17T13:45:22.627Z,1.40
2018-06-17T13:47:51.093Z,1.20
2018-06-17T13:50:19.511Z,1.50
2018-06-17T13:52:47.704Z,2.40
2018-06-17T13:55:16.108Z,1.60
2018-06-17T13:57:44.539Z,1.87
2018-06-17T14:00:12.960Z,2.13
2018-06-17T14:02:41.343Z,1.60
2018-06-17T14:05:09.734Z,1.83
2018-06-17T14:07:38.205Z,1.83
2018-06-17T14:10:06.648Z,1.90
2018-06-17T14:12:35.051Z,1.53
2018-06-17T14:15:03.533Z,1.57
2018-06-17T14:17:32.009Z,1.70
2018-06-17T14:20:00.459Z,1.90
2018-06-17T14:22:28.879Z,2.00
2018-06-17T14:24:57.277Z,1.67
2018-06-17T14:27:26.284Z,2.23
2018-06-17T14:29:54.697Z,2.00
2018-06-17T14:32:23.143Z,1.87
2018-06-17T14:34:51.594Z,1.97
2018-06-17T14:37:20.050Z,1.80
2018-06-17T14:39:48.500Z,3.40
2018-06-17T14:42:22.200Z,2.57
2018-06-17T14:44:55.876Z,2.10
2018-06-17T14:47:36.760Z,1.60
2018-06-17T14:50:14.272Z,2.57
2018-06-17T14:52:48.063Z,1.80
2018-06-17T14:55:16.935Z,2.40
2018-06-17T14:57:45.319Z,2.30
2018-06-17T15:00:13.755Z,2.00
2018-06-17T15:02:41.845Z,1.40
2018-06-17T15:05:10.887Z,1.27
2018-06-17T15:07:39.324Z,1.67
2018-06-17T15:10:07.695Z,1.50
2018-06-17T15:12:36.175Z,1.30
2018-06-17T15:15:05.275Z,1.07
2018-06-17T15:17:33.665Z,1.87
2018-06-17T15:20:02.593Z,1.30
2018-06-17T15:22:30.995Z,1.47
2018-06-17T15:24:59.427Z,0.97
2018-06-17T15:27:27.865Z,1.17
2018-06-17T15:29:56.293Z,1.20
2018-06-17T15:32:30.151Z,1.40
2018-06-17T15:37:09.323Z,1.43
2018-06-17T15:39:43.655Z,1.30
2018-06-17T15:42:12.861Z,1.87
2018-06-17T15:44:41.199Z,1.37
2018-06-17T15:49:44.039Z,1.63
2018-06-17T15:52:12.440Z,1.87
2018-06-17T15:54:40.951Z,1.63
2018-06-17T15:57:09.427Z,1.70
2018-06-17T15:59:37.778Z,1.70
2018-06-17T16:02:06.913Z,1.50
2018-06-17T16:04:35.169Z,1.43
2018-06-17T16:07:03.557Z,1.63
2018-06-17T16:09:32.076Z,1.80
2018-06-17T16:12:06.314Z,1.53
2018-06-17T16:14:40.024Z,1.43
2018-06-17T16:17:13.677Z,1.40
2018-06-17T16:19:47.459Z,2.00
2018-06-17T16:22:15.839Z,1.40
2018-06-17T16:24:44.208Z,1.20
2018-06-17T16:27:12.621Z,1.60
2018-06-17T16:29:40.985Z,2.00
2018-06-17T16:32:09.395Z,1.77
2018-06-17T16:34:37.817Z,1.67
2018-06-17T16:37:06.181Z,2.20
2018-06-17T16:39:34.541Z,1.70
2018-06-17T16:42:02.913Z,1.80
2018-06-17T16:44:31.332Z,1.60
2018-06-17T16:47:00.203Z,1.60
2018-06-17T16:49:28.612Z,1.80
2018-06-17T16:52:02.213Z,1.20
2018-06-17T16:54:35.891Z,1.20
2018-06-17T16:57:09.808Z,1.33
2018-06-17T16:59:43.449Z,1.20
2018-06-17T17:02:11.826Z,2.23
2018-06-17T17:04:40.328Z,2.00
2018-06-17T17:07:08.728Z,1.60
2018-06-17T17:09:37.105Z,2.00
2018-06-17T17:12:05.468Z,1.33
2018-06-17T17:14:33.847Z,1.20
2018-06-17T17:17:02.185Z,1.87
2018-06-17T17:19:30.666Z,1.90
2018-06-17T17:21:59.051Z,1.17
2018-06-17T17:24:27.430Z,1.20
2018-06-17T17:26:55.826Z,1.23
2018-06-17T17:29:24.349Z,1.17
2018-06-17T17:31:58.097Z,1.17
2018-06-17T17:34:31.809Z,1.20
2018-06-17T17:37:05.703Z,1.00
2018-06-17T17:39:39.334Z,1.13
2018-06-17T17:42:07.708Z,1.23
2018-06-17T17:44:41.479Z,1.63
2018-06-17T17:47:15.287Z,0.93
2018-06-17T17:49:43.890Z,1.10
2018-06-17T17:52:12.480Z,1.63
2018-06-17T17:54:40.827Z,1.27
2018-06-17T17:57:09.342Z,2.23
2018-06-17T17:59:37.721Z,1.50
2018-06-17T18:02:06.385Z,1.50
2018-06-17T18:04:34.938Z,1.40
2018-06-17T18:07:03.518Z,1.50
2018-06-17T18:09:32.438Z,1.63
2018-06-17T18:12:00.873Z,1.67
2018-06-17T18:14:29.511Z,2.27
2018-06-17T18:16:58.854Z,1.43
2018-06-17T18:19:27.654Z,1.57
2018-06-17T18:21:56.163Z,1.13
2018-06-17T18:24:24.637Z,1.53
2018-06-17T18:26:58.450Z,1.60
2018-06-17T18:29:32.327Z,1.67
2018-06-17T18:32:06.278Z,1.10
2018-06-17T18:34:40.044Z,0.90
2018-06-17T18:37:08.484Z,1.23
2018-06-17T18:39:36.904Z,1.37
2018-06-17T18:42:05.298Z,1.40
2018-06-17T18:44:33.713Z,1.23
2018-06-17T18:47:02.050Z,1.43
2018-06-17T18:49:30.432Z,1.47
2018-06-17T18:51:58.789Z,1.30
2018-06-17T18:54:27.788Z,3.83
2018-06-17T18:56:56.162Z,2.00
2018-06-17T18:59:24.507Z,1.30
2018-06-17T19:01:52.896Z,1.87
2018-06-17T19:04:21.321Z,1.20
2018-06-17T19:06:49.744Z,1.47
2018-06-17T19:09:23.395Z,1.60
2018-06-17T19:11:57.055Z,1.50
2018-06-17T19:14:30.566Z,1.60
2018-06-17T19:17:04.369Z,1.37
2018-06-17T19:19:32.742Z,1.73
2018-06-17T19:22:01.110Z,1.07
2018-06-17T19:24:29.466Z,1.03
2018-06-17T19:26:57.926Z,0.90
2018-06-17T19:29:26.303Z,1.50
2018-06-17T19:31:55.291Z,0.97
2018-06-17T19:34:23.659Z,0.70
2018-06-17T19:36:52.134Z,1.40
2018-06-17T19:39:20.594Z,0.60
2018-06-17T19:41:50.095Z,0.60
2018-06-17T19:44:18.556Z,1.03
2018-06-17T19:46:46.937Z,0.87
2018-06-17T19:49:15.334Z,1.33
2018-06-17T19:51:48.945Z,1.33
2018-06-17T19:54:22.685Z,1.20
2018-06-17T19:56:56.585Z,1.13
2018-06-17T19:59:30.345Z,0.80
2018-06-17T20:01:58.416Z,0.70
2018-06-17T20:04:26.582Z,0.90
2018-06-17T20:06:54.991Z,1.10
2018-06-17T20:09:23.350Z,1.30
2018-06-17T20:11:51.880Z,1.33
2018-06-17T20:14:20.288Z,1.60
2018-06-17T20:16:48.662Z,1.60
2018-06-17T20:19:17.057Z,1.20
2018-06-17T20:21:45.511Z,2.23
2018-06-17T20:24:13.876Z,1.30
2018-06-17T20:26:42.288Z,1.47
2018-06-17T20:29:10.783Z,1.70
2018-06-17T20:31:44.557Z,1.27
2018-06-17T20:34:18.192Z,1.37
2018-06-17T20:36:51.952Z,1.33
2018-06-17T20:39:25.653Z,1.50
2018-06-17T20:41:59.276Z,1.47
2018-06-17T20:44:27.658Z,2.07
2018-06-17T20:46:56.137Z,1.43
2018-06-17T20:49:24.538Z,1.50
2018-06-17T20:51:52.908Z,1.13
2018-06-17T20:54:21.310Z,2.03
2018-06-17T20:56:49.674Z,1.33
2018-06-17T20:59:18.049Z,1.60
2018-06-17T21:01:46.412Z,0.83
2018-06-17T21:04:14.832Z,0.97
2018-06-17T21:06:43.195Z,1.10
2018-06-17T21:09:11.934Z,1.33
2018-06-17T21:11:40.333Z,1.13
2018-06-17T21:14:08.684Z,1.10
2018-06-17T21:16:37.111Z,1.53
2018-06-17T21:19:10.692Z,1.00
2018-06-17T21:21:44.464Z,1.53
2018-06-17T21:24:18.210Z,1.70
2018-06-17T21:26:52.237Z,1.70
2018-06-17T21:29:20.576Z,1.80
2018-06-17T21:31:48.927Z,1.30
2018-06-17T21:34:17.318Z,1.00
2018-06-17T21:36:45.640Z,1.30
2018-06-17T21:39:14.063Z,0.90
2018-06-17T21:41:42.396Z,1.00
2018-06-17T21:44:10.834Z,0.90
2018-06-17T21:46:39.405Z,0.67
2018-06-17T21:49:07.770Z,1.47
2018-06-17T21:51:36.677Z,0.80
2018-06-17T21:54:05.677Z,1.70
2018-06-17T21:56:34.019Z,1.23
2018-06-17T21:59:02.392Z,1.20
2018-06-17T22:01:33.660Z,1.50
2018-06-17T22:04:07.302Z,1.30
2018-06-17T22:06:35.661Z,0.70
2018-06-17T22:09:11.235Z,1.77
2018-06-17T22:11:44.843Z,1.77
2018-06-17T22:14:18.580Z,1.07
2018-06-17T22:16:53.100Z,1.43
2018-06-17T22:19:21.575Z,0.93
2018-06-17T22:21:49.847Z,1.90
2018-06-17T22:24:18.191Z,1.30
2018-06-17T22:26:46.543Z,1.53
2018-06-17T22:29:14.876Z,1.30
2018-06-17T22:31:43.227Z,2.17
2018-06-17T22:34:11.587Z,1.73
2018-06-17T22:36:40.045Z,1.73
2018-06-17T22:39:09.370Z,1.27
2018-06-17T22:41:38.466Z,1.40
2018-06-17T22:44:06.817Z,1.77
2018-06-17T22:46:35.279Z,0.97
2018-06-17T22:49:03.327Z,0.93
2018-06-17T22:51:31.743Z,0.93
2018-06-17T22:54:11.249Z,1.10
2018-06-17T22:56:44.822Z,0.70
2018-06-17T22:59:18.480Z,0.80
2018-06-17T23:01:52.116Z,0.70
2018-06-17T23:04:25.739Z,0.97
2018-06-17T23:07:00.098Z,1.40
2018-06-17T23:09:32.331Z,1.07
2018-06-17T23:12:01.619Z,0.77
2018-06-17T23:14:29.955Z,0.70
2018-06-17T23:16:58.312Z,1.20
2018-06-17T23:19:26.668Z,1.03
2018-06-17T23:21:55.171Z,1.07
2018-06-17T23:24:23.657Z,0.60
2018-06-17T23:29:26.605Z,1.43
2018-06-17T23:31:54.974Z,0.67
2018-06-17T23:34:23.444Z,1.00
2018-06-17T23:36:51.806Z,0.63
2018-06-17T23:39:20.842Z,0.80
2018-06-17T23:41:49.204Z,1.20
2018-06-17T23:44:17.579Z,1.07
2018-06-17T23:46:51.248Z,1.30
2018-06-17T23:49:24.968Z,1.03
2018-06-17T23:51:58.682Z,1.20
2018-06-17T23:54:32.317Z,1.20
2018-06-17T23:57:00.698Z,1.00
2018-06-17T23:59:29.054Z,0.73
